createdAt,value
2022-10-02T00:00:55.656Z,92.84
2022-10-02T00:01:55.716Z,92.84
2022-10-02T00:02:55.623Z,92.94
2022-10-02T00:03:55.681Z,93.09
2022-10-02T00:04:55.580Z,93.19
2022-10-02T00:05:55.563Z,93.29
2022-10-02T00:06:55.587Z,93.40
2022-10-02T00:07:55.555Z,93.35
2022-10-02T00:08:55.524Z,93.35
2022-10-02T00:09:55.513Z,93.49
2022-10-02T00:10:55.531Z,93.60
2022-10-02T00:11:55.503Z,93.60
2022-10-02T00:12:55.470Z,93.70
2022-10-02T00:13:55.463Z,93.70
2022-10-02T00:14:55.480Z,93.80
2022-10-02T00:15:55.438Z,93.90
2022-10-02T00:16:55.507Z,94.00
2022-10-02T00:17:55.405Z,94.10
2022-10-02T00:18:55.452Z,94.00
2022-10-02T00:19:55.391Z,93.90
2022-10-02T00:20:55.375Z,93.90
2022-10-02T00:21:55.385Z,93.90
2022-10-02T00:22:55.352Z,93.90
2022-10-02T00:23:55.336Z,94.00
2022-10-02T00:24:55.319Z,94.10
2022-10-02T00:25:55.316Z,94.00
2022-10-02T00:26:55.318Z,93.90
2022-10-02T00:27:55.315Z,93.76
2022-10-02T00:28:55.281Z,93.90
2022-10-02T00:29:55.251Z,94.00
2022-10-02T00:30:55.243Z,94.10
2022-10-02T00:31:55.287Z,94.10
2022-10-02T00:39:54.512Z,94.26
2022-10-02T00:40:55.486Z,94.17
2022-10-02T00:41:55.497Z,94.17
2022-10-02T00:42:55.455Z,94.26
2022-10-02T00:43:55.480Z,94.37
2022-10-02T00:44:55.446Z,94.26
2022-10-02T00:45:55.459Z,94.26
2022-10-02T00:46:55.422Z,94.37
2022-10-02T00:47:55.429Z,94.37
2022-10-02T00:48:55.386Z,94.37
2022-10-02T00:49:55.375Z,94.26
2022-10-02T00:50:55.357Z,94.26
2022-10-02T00:51:55.351Z,94.26
2022-10-02T00:52:55.355Z,94.37
2022-10-02T00:53:55.329Z,94.26
2022-10-02T00:54:55.310Z,94.26
2022-10-02T00:55:55.304Z,94.26
2022-10-02T00:56:55.290Z,94.37
2022-10-02T00:59:52.372Z,94.46
2022-10-02T01:00:53.432Z,94.46
2022-10-02T01:01:53.364Z,94.46
2022-10-02T01:02:53.344Z,94.37
2022-10-02T01:03:53.326Z,94.26
2022-10-02T01:04:53.282Z,94.17
2022-10-02T01:05:53.309Z,94.17
2022-10-02T01:06:53.261Z,94.17
2022-10-02T01:07:53.285Z,94.26
2022-10-02T01:08:53.263Z,94.37
2022-10-02T01:09:53.252Z,94.37
2022-10-02T01:10:53.208Z,94.37
2022-10-02T01:11:53.202Z,94.37
2022-10-02T01:12:53.206Z,94.37
2022-10-02T01:13:53.203Z,94.37
2022-10-02T01:14:53.150Z,94.46
2022-10-02T01:15:53.167Z,94.57
2022-10-02T01:16:53.161Z,94.57
2022-10-02T01:17:53.144Z,94.57
2022-10-02T01:18:53.116Z,94.57
2022-10-02T01:19:53.092Z,94.57
2022-10-02T01:20:53.093Z,94.57
2022-10-02T01:21:53.071Z,94.67
2022-10-02T01:22:53.106Z,94.67
2022-10-02T01:23:53.047Z,94.77
2022-10-02T01:24:53.026Z,94.67
2022-10-02T01:25:53.023Z,94.67
2022-10-02T01:26:53.000Z,94.62
2022-10-02T01:27:53.060Z,94.62
2022-10-02T01:28:52.971Z,94.67
2022-10-02T01:29:53.010Z,94.73
2022-10-02T01:30:52.961Z,94.83
2022-10-02T01:31:53.010Z,94.87
2022-10-02T01:32:52.963Z,94.98
2022-10-02T01:33:52.917Z,94.93
2022-10-02T01:34:52.901Z,95.03
2022-10-02T01:35:52.897Z,95.07
2022-10-02T01:36:52.867Z,95.07
2022-10-02T01:37:52.876Z,94.93
2022-10-02T01:38:52.844Z,94.93
2022-10-02T01:39:52.836Z,94.93
2022-10-02T01:40:52.839Z,94.93
2022-10-02T01:41:52.811Z,94.93
2022-10-02T01:42:52.837Z,94.93
2022-10-02T01:43:52.780Z,94.93
2022-10-02T01:44:52.783Z,94.93
2022-10-02T01:45:52.891Z,94.83
2022-10-02T01:46:52.746Z,94.83
2022-10-02T01:47:52.747Z,94.83
2022-10-02T01:48:52.716Z,94.93
2022-10-02T01:49:52.712Z,94.93
2022-10-02T01:50:52.691Z,95.03
2022-10-02T01:51:52.680Z,95.03
2022-10-02T01:52:52.693Z,95.03
2022-10-02T01:53:52.668Z,95.03
2022-10-02T01:54:52.640Z,95.13
2022-10-02T01:55:52.658Z,95.23
2022-10-02T01:56:52.615Z,95.23
2022-10-02T01:57:52.635Z,95.23
2022-10-02T02:00:03.668Z,95.23
2022-10-02T02:01:04.706Z,95.23
2022-10-02T02:02:04.718Z,95.34
2022-10-02T02:03:04.634Z,95.34
2022-10-02T02:04:04.609Z,95.23
2022-10-02T02:05:04.608Z,95.23
2022-10-02T02:06:04.596Z,95.23
2022-10-02T02:07:04.573Z,95.23
2022-10-02T02:08:04.591Z,95.13
2022-10-02T02:09:04.547Z,95.03
2022-10-02T02:10:04.538Z,95.03
2022-10-02T02:11:04.543Z,94.93
2022-10-02T02:12:04.501Z,94.93
2022-10-02T02:13:04.515Z,94.93
2022-10-02T02:14:04.472Z,94.93
2022-10-02T02:15:04.465Z,95.03
2022-10-02T02:16:04.522Z,95.03
2022-10-02T02:17:04.443Z,95.13
2022-10-02T02:18:04.434Z,95.13
2022-10-02T02:19:04.426Z,95.13
2022-10-02T02:20:04.403Z,95.03
2022-10-02T02:21:04.384Z,95.03
2022-10-02T02:22:04.377Z,95.13
2022-10-02T02:23:04.399Z,95.13
2022-10-02T02:24:04.340Z,95.13
2022-10-02T02:25:04.356Z,95.23
2022-10-02T02:26:04.323Z,95.23
2022-10-02T02:27:04.306Z,95.23
2022-10-02T02:28:04.329Z,95.34
2022-10-02T02:29:04.283Z,95.34
2022-10-02T02:30:04.264Z,95.23
2022-10-02T02:31:04.251Z,95.23
2022-10-02T02:32:04.279Z,95.13
2022-10-02T02:33:04.245Z,95.23
2022-10-02T02:34:04.250Z,95.34
2022-10-02T02:35:04.200Z,95.34
2022-10-02T02:36:04.184Z,95.43
2022-10-02T02:37:04.180Z,95.43
2022-10-02T02:38:04.333Z,95.43
2022-10-02T02:39:04.148Z,95.43
2022-10-02T02:40:04.132Z,95.43
2022-10-02T02:41:04.130Z,95.43
2022-10-02T02:42:04.138Z,95.34
2022-10-02T02:43:04.139Z,95.34
2022-10-02T02:44:04.094Z,95.34
2022-10-02T02:45:04.097Z,95.34
2022-10-02T02:46:04.107Z,95.23
2022-10-02T02:47:04.063Z,95.23
2022-10-02T02:48:04.075Z,95.34
2022-10-02T02:49:04.023Z,95.34
2022-10-02T02:50:04.000Z,95.34
2022-10-02T02:51:04.018Z,95.34
2022-10-02T02:52:04.029Z,95.23
2022-10-02T02:53:03.988Z,95.23
2022-10-02T02:54:03.942Z,95.19
2022-10-02T02:55:03.932Z,95.19
2022-10-02T02:56:03.931Z,95.09
2022-10-02T02:57:03.976Z,95.09
2022-10-02T02:59:54.488Z,94.98
2022-10-02T03:00:55.542Z,95.09
2022-10-02T03:01:56.167Z,94.98
2022-10-02T03:02:55.440Z,94.98
2022-10-02T03:03:55.441Z,95.09
2022-10-02T03:04:55.430Z,94.98
2022-10-02T03:05:55.399Z,94.98
2022-10-02T03:06:55.406Z,94.98
2022-10-02T03:07:55.379Z,94.98
2022-10-02T03:08:55.383Z,94.89
2022-10-02T03:09:55.361Z,94.89
2022-10-02T03:10:55.352Z,94.98
2022-10-02T03:11:55.314Z,94.89
2022-10-02T03:12:55.321Z,94.89
2022-10-02T03:13:55.306Z,94.89
2022-10-02T03:14:55.273Z,94.78
2022-10-02T03:15:55.300Z,94.58
2022-10-02T03:16:55.252Z,94.48
2022-10-02T03:17:55.256Z,94.27
2022-10-02T03:18:55.251Z,94.18
2022-10-02T03:19:55.212Z,94.07
2022-10-02T03:20:55.219Z,94.07
2022-10-02T03:21:55.191Z,94.07
2022-10-02T03:22:55.161Z,94.07
2022-10-02T03:23:55.200Z,94.18
2022-10-02T03:24:55.146Z,94.27
2022-10-02T03:25:55.123Z,94.38
2022-10-02T03:26:55.107Z,94.27
2022-10-02T03:27:55.150Z,94.27
2022-10-02T03:28:56.722Z,94.18
2022-10-02T03:29:55.076Z,94.07
2022-10-02T03:30:55.058Z,93.93
2022-10-02T03:31:55.074Z,93.83
2022-10-02T03:32:55.026Z,93.97
2022-10-02T03:33:55.033Z,93.97
2022-10-02T03:34:55.003Z,94.03
2022-10-02T03:35:54.988Z,94.18
2022-10-02T03:36:55.013Z,94.38
2022-10-02T03:37:54.956Z,94.58
2022-10-02T03:39:19.790Z,94.89
2022-10-02T03:39:54.961Z,95.29
2022-10-02T03:40:54.927Z,95.59
2022-10-02T03:41:54.927Z,95.79
2022-10-02T03:42:54.894Z,95.90
2022-10-02T03:43:54.888Z,96.00
2022-10-02T03:44:54.862Z,96.10
2022-10-02T03:45:54.860Z,96.20
2022-10-02T03:46:54.976Z,96.41
2022-10-02T03:47:54.840Z,96.41
2022-10-02T03:48:54.824Z,96.51
2022-10-02T03:49:54.809Z,96.51
2022-10-02T03:50:54.775Z,96.51
2022-10-02T03:51:54.765Z,96.41
2022-10-02T03:52:54.750Z,96.41
2022-10-02T03:53:54.752Z,96.30
2022-10-02T03:54:54.727Z,96.20
2022-10-02T03:55:54.742Z,96.20
2022-10-02T03:56:54.710Z,96.10
2022-10-02T03:59:55.318Z,96.10
2022-10-02T04:00:56.287Z,96.20
2022-10-02T04:01:56.315Z,96.30
2022-10-02T04:02:56.285Z,96.20
2022-10-02T04:03:56.339Z,96.30
2022-10-02T04:04:56.242Z,96.30
2022-10-02T04:05:56.220Z,96.41
2022-10-02T04:06:56.211Z,96.30
2022-10-02T04:07:56.209Z,96.20
2022-10-02T04:08:56.219Z,96.10
2022-10-02T04:09:56.192Z,95.79
2022-10-02T04:10:56.181Z,95.70
2022-10-02T04:11:56.142Z,95.59
2022-10-02T04:12:56.147Z,95.59
2022-10-02T04:13:56.140Z,95.50
2022-10-02T04:14:56.099Z,95.39
2022-10-02T04:15:56.138Z,95.50
2022-10-02T04:16:56.092Z,95.50
2022-10-02T04:17:59.034Z,95.50
2022-10-02T04:18:56.046Z,95.50
2022-10-02T04:19:56.040Z,95.50
2022-10-02T04:20:56.023Z,95.70
2022-10-02T04:21:56.017Z,95.79
2022-10-02T04:22:55.985Z,95.70
2022-10-02T04:23:56.007Z,95.90
2022-10-02T04:24:55.969Z,96.00
2022-10-02T04:25:55.954Z,96.10
2022-10-02T04:26:55.929Z,96.30
2022-10-02T04:27:55.978Z,96.41
2022-10-02T04:28:55.920Z,96.51
2022-10-02T04:29:55.899Z,96.71
2022-10-02T04:30:55.935Z,96.96
2022-10-02T04:31:55.979Z,97.36
2022-10-02T04:32:55.849Z,98.07
2022-10-02T04:33:55.877Z,98.83
2022-10-02T04:34:55.819Z,99.44
2022-10-02T04:35:55.818Z,99.95
2022-10-02T04:36:55.795Z,99.99
2022-10-02T04:37:55.811Z,99.99
2022-10-02T04:38:55.801Z,99.99
2022-10-02T04:39:55.764Z,99.99
2022-10-02T04:40:55.746Z,99.99
2022-10-02T04:41:55.737Z,99.99
2022-10-02T04:42:55.761Z,99.99
2022-10-02T04:43:55.705Z,99.99
2022-10-02T04:44:55.730Z,99.99
2022-10-02T04:45:55.735Z,99.99
2022-10-02T04:46:55.667Z,99.99
2022-10-02T04:47:55.685Z,99.99
2022-10-02T04:48:55.649Z,99.99
2022-10-02T04:49:55.635Z,99.99
2022-10-02T04:50:55.616Z,99.99
2022-10-02T04:51:55.604Z,99.99
2022-10-02T04:52:55.587Z,99.99
2022-10-02T04:53:55.603Z,99.99
2022-10-02T04:54:55.557Z,99.99
2022-10-02T04:55:55.554Z,99.99
2022-10-02T04:56:55.533Z,99.99
2022-10-02T04:59:52.629Z,99.99
2022-10-02T05:00:53.668Z,99.99
2022-10-02T05:01:53.557Z,99.99
2022-10-02T05:02:53.576Z,99.99
2022-10-02T05:03:53.612Z,99.99
2022-10-02T05:04:53.576Z,99.99
2022-10-02T05:05:53.532Z,99.99
2022-10-02T05:06:53.490Z,99.99
2022-10-02T05:07:53.476Z,99.99
2022-10-02T05:08:53.463Z,99.99
2022-10-02T05:09:53.522Z,99.99
2022-10-02T05:10:53.504Z,99.99
2022-10-02T05:11:53.440Z,99.99
2022-10-02T05:12:53.414Z,99.99
2022-10-02T05:13:53.403Z,99.99
2022-10-02T05:14:53.428Z,99.99
2022-10-02T05:15:53.461Z,99.99
2022-10-02T05:16:53.377Z,99.99
2022-10-02T05:17:53.345Z,99.99
2022-10-02T05:18:53.345Z,99.99
2022-10-02T05:19:53.345Z,99.99
2022-10-02T05:20:53.302Z,99.99
2022-10-02T05:21:53.285Z,99.99
2022-10-02T05:22:53.288Z,99.99
2022-10-02T05:23:53.267Z,99.99
2022-10-02T05:24:53.254Z,99.99
2022-10-02T05:25:53.244Z,99.99
2022-10-02T05:26:53.223Z,99.99
2022-10-02T05:27:53.268Z,99.99
2022-10-02T05:28:53.217Z,99.99
2022-10-02T05:29:53.178Z,99.99
2022-10-02T05:30:53.166Z,99.99
2022-10-02T05:31:53.185Z,99.99
2022-10-02T05:32:53.154Z,99.99
2022-10-02T05:33:53.179Z,99.99
2022-10-02T05:34:53.136Z,99.99
2022-10-02T05:35:53.102Z,99.99
2022-10-02T05:36:53.093Z,99.99
2022-10-02T05:37:53.077Z,99.99
2022-10-02T05:38:53.105Z,99.99
2022-10-02T05:39:53.055Z,99.99
2022-10-02T05:40:53.063Z,99.99
2022-10-02T05:41:53.070Z,99.99
2022-10-02T05:42:53.043Z,99.99
2022-10-02T05:43:53.010Z,99.99
2022-10-02T05:44:52.985Z,99.99
2022-10-02T05:45:52.980Z,99.99
2022-10-02T05:46:53.010Z,99.99
2022-10-02T05:47:52.980Z,99.99
2022-10-02T05:48:52.953Z,99.99
2022-10-02T05:49:52.905Z,99.99
2022-10-02T05:50:52.913Z,99.99
2022-10-02T05:51:52.896Z,99.99
2022-10-02T05:52:52.913Z,99.99
2022-10-02T05:53:52.873Z,99.99
2022-10-02T05:54:52.876Z,99.99
2022-10-02T05:55:52.843Z,99.99
2022-10-02T05:56:52.833Z,99.99
2022-10-02T05:59:53.377Z,99.95
2022-10-02T06:00:54.415Z,99.85
2022-10-02T06:01:54.379Z,99.85
2022-10-02T06:02:54.334Z,99.95
2022-10-02T06:03:54.328Z,99.95
2022-10-02T06:04:54.295Z,99.99
2022-10-02T06:05:54.285Z,99.99
2022-10-02T06:06:54.375Z,99.95
2022-10-02T06:07:54.296Z,99.95
2022-10-02T06:08:54.246Z,99.85
2022-10-02T06:09:54.257Z,99.64
2022-10-02T06:10:54.227Z,99.64
2022-10-02T06:11:54.206Z,99.64
2022-10-02T06:12:54.253Z,99.64
2022-10-02T06:13:54.187Z,99.74
2022-10-02T06:14:54.190Z,99.74
2022-10-02T06:15:54.148Z,99.79
2022-10-02T06:16:54.206Z,99.74
2022-10-02T06:17:54.155Z,99.79
2022-10-02T06:18:54.123Z,99.74
2022-10-02T06:19:54.098Z,99.64
2022-10-02T06:20:54.113Z,99.64
2022-10-02T06:21:54.076Z,99.74
2022-10-02T06:22:54.100Z,99.74
2022-10-02T06:23:54.054Z,99.54
2022-10-02T06:24:54.046Z,99.44
2022-10-02T06:25:54.031Z,99.44
2022-10-02T06:26:54.018Z,99.33
2022-10-02T06:27:54.090Z,99.44
2022-10-02T06:28:54.011Z,99.33
2022-10-02T06:29:53.985Z,99.44
2022-10-02T06:30:53.968Z,99.54
2022-10-02T06:31:54.020Z,99.44
2022-10-02T06:32:53.963Z,99.44
2022-10-02T06:33:53.943Z,99.44
2022-10-02T06:34:53.923Z,99.44
2022-10-02T06:35:53.903Z,99.44
2022-10-02T06:36:53.900Z,99.44
2022-10-02T06:37:53.905Z,99.33
2022-10-02T06:38:53.869Z,99.33
2022-10-02T06:39:53.876Z,99.33
2022-10-02T06:40:53.929Z,99.24
2022-10-02T06:41:53.843Z,99.13
2022-10-02T06:42:53.867Z,99.04
2022-10-02T06:43:53.812Z,99.13
2022-10-02T06:44:53.796Z,99.13
2022-10-02T06:45:53.796Z,99.13
2022-10-02T06:46:53.772Z,99.13
2022-10-02T06:47:53.886Z,99.24
2022-10-02T06:48:53.759Z,99.04
2022-10-02T06:49:53.725Z,98.83
2022-10-02T06:50:53.719Z,98.63
2022-10-02T06:51:53.734Z,98.32
2022-10-02T06:52:53.704Z,98.22
2022-10-02T06:53:53.694Z,97.92
2022-10-02T06:54:53.715Z,97.71
2022-10-02T06:55:53.647Z,97.41
2022-10-02T06:56:53.658Z,97.06
2022-10-02T06:59:54.215Z,96.75
2022-10-02T07:00:55.209Z,96.35
2022-10-02T07:01:57.446Z,96.15
2022-10-02T07:02:55.513Z,95.94
2022-10-02T07:03:55.165Z,95.84
2022-10-02T07:04:55.110Z,95.54
2022-10-02T07:05:55.093Z,95.43
2022-10-02T07:06:55.091Z,95.13
2022-10-02T07:07:55.101Z,95.09
2022-10-02T07:08:55.066Z,95.09
2022-10-02T07:09:55.050Z,94.98
2022-10-02T07:10:55.035Z,95.19
2022-10-02T07:11:55.020Z,95.09
2022-10-02T07:12:55.057Z,94.89
2022-10-02T07:13:54.997Z,95.09
2022-10-02T07:14:54.991Z,94.78
2022-10-02T07:15:55.004Z,94.89
2022-10-02T07:16:54.963Z,95.09
2022-10-02T07:17:54.964Z,95.19
2022-10-02T07:18:54.933Z,94.98
2022-10-02T07:19:54.933Z,95.29
2022-10-02T07:20:54.900Z,94.78
2022-10-02T07:21:54.891Z,94.78
2022-10-02T07:22:54.903Z,94.68
2022-10-02T07:23:57.791Z,94.78
2022-10-02T07:24:54.870Z,94.78
2022-10-02T07:25:54.839Z,94.58
2022-10-02T07:26:54.830Z,94.27
2022-10-02T07:27:54.836Z,94.18
2022-10-02T07:28:54.816Z,94.48
2022-10-02T07:29:54.780Z,94.18
2022-10-02T07:30:54.781Z,93.97
2022-10-02T07:31:54.800Z,94.27
2022-10-02T07:32:54.746Z,94.18
2022-10-02T07:33:54.743Z,94.18
2022-10-02T07:34:54.712Z,94.48
2022-10-02T07:35:54.707Z,94.07
2022-10-02T07:36:54.719Z,94.38
2022-10-02T07:37:54.668Z,94.38
2022-10-02T07:38:54.690Z,94.38
2022-10-02T07:39:54.641Z,94.68
2022-10-02T07:40:59.265Z,94.68
2022-10-02T07:41:54.629Z,94.58
2022-10-02T07:42:54.620Z,94.27
2022-10-02T07:43:54.605Z,93.97
2022-10-02T07:44:54.582Z,93.97
2022-10-02T07:45:54.588Z,94.07
2022-10-02T07:46:54.561Z,94.18
2022-10-02T07:47:54.549Z,94.18
2022-10-02T07:48:54.524Z,93.97
2022-10-02T07:49:54.505Z,93.67
2022-10-02T07:50:54.491Z,93.57
2022-10-02T07:51:54.479Z,93.67
2022-10-02T07:52:54.539Z,93.77
2022-10-02T07:53:54.453Z,93.67
2022-10-02T07:54:54.438Z,93.57
2022-10-02T07:55:54.435Z,93.46
2022-10-02T07:56:54.418Z,93.46
2022-10-02T07:59:54.959Z,93.37
2022-10-02T08:00:55.948Z,93.57
2022-10-02T08:01:56.107Z,93.67
2022-10-02T08:02:55.957Z,93.46
2022-10-02T08:03:55.902Z,93.06
2022-10-02T08:04:55.924Z,93.06
2022-10-02T08:05:55.863Z,93.16
2022-10-02T08:06:55.866Z,93.46
2022-10-02T08:07:55.837Z,93.16
2022-10-02T08:08:55.849Z,93.26
2022-10-02T08:09:55.818Z,93.06
2022-10-02T08:10:55.848Z,93.06
2022-10-02T08:11:55.778Z,93.26
2022-10-02T08:12:55.768Z,92.86
2022-10-02T08:13:56.185Z,92.96
2022-10-02T08:14:55.746Z,93.26
2022-10-02T08:15:55.826Z,93.06
2022-10-02T08:16:55.739Z,93.06
2022-10-02T08:17:58.694Z,93.16
2022-10-02T08:18:55.751Z,93.16
2022-10-02T08:19:55.665Z,93.26
2022-10-02T08:20:55.657Z,93.46
2022-10-02T08:21:55.642Z,93.57
2022-10-02T08:22:55.637Z,93.37
2022-10-02T08:23:55.639Z,93.46
2022-10-02T08:24:55.606Z,93.26
2022-10-02T08:25:55.614Z,93.16
2022-10-02T08:26:55.582Z,93.26
2022-10-02T08:27:55.599Z,92.96
2022-10-02T08:28:55.569Z,92.91
2022-10-02T08:29:55.569Z,93.02
2022-10-02T08:30:55.525Z,92.82
2022-10-02T08:31:55.572Z,92.61
2022-10-02T08:32:55.494Z,92.71
2022-10-02T08:33:55.512Z,92.61
2022-10-02T08:34:55.473Z,92.71
2022-10-02T08:35:55.466Z,92.41
2022-10-02T08:36:55.439Z,92.82
2022-10-02T08:37:55.419Z,92.86
2022-10-02T08:38:55.445Z,93.16
2022-10-02T08:39:55.406Z,93.46
2022-10-02T08:40:55.388Z,93.46
2022-10-02T08:41:55.383Z,93.26
2022-10-02T08:42:55.366Z,93.57
2022-10-02T08:43:55.365Z,93.46
2022-10-02T08:44:55.332Z,93.46
2022-10-02T08:45:55.423Z,93.62
2022-10-02T08:46:55.310Z,93.42
2022-10-02T08:47:55.287Z,93.52
2022-10-02T08:48:55.296Z,93.32
2022-10-02T08:49:55.259Z,92.91
2022-10-02T08:50:55.246Z,92.71
2022-10-02T08:51:55.241Z,92.71
2022-10-02T08:52:55.221Z,92.57
2022-10-02T08:53:55.218Z,92.36
2022-10-02T08:54:55.195Z,91.75
2022-10-02T08:55:55.174Z,91.66
2022-10-02T08:56:55.177Z,91.96
2022-10-02T08:59:55.888Z,92.26
2022-10-02T09:00:56.722Z,92.57
2022-10-02T09:01:59.959Z,92.31
2022-10-02T09:02:56.649Z,92.21
2022-10-02T09:03:56.649Z,92.51
2022-10-02T09:04:56.641Z,92.86
2022-10-02T09:05:56.603Z,93.06
2022-10-02T09:06:56.600Z,92.96
2022-10-02T09:07:56.577Z,92.96
2022-10-02T09:08:56.582Z,93.37
2022-10-02T09:09:56.554Z,93.57
2022-10-02T09:10:56.538Z,93.67
2022-10-02T09:11:56.520Z,93.67
2022-10-02T09:12:56.528Z,93.26
2022-10-02T09:13:56.513Z,93.46
2022-10-02T09:14:58.880Z,93.77
2022-10-02T09:15:56.546Z,93.46
2022-10-02T09:16:56.504Z,93.57
2022-10-02T09:17:56.442Z,93.16
2022-10-02T09:18:56.464Z,93.26
2022-10-02T09:19:56.410Z,93.46
2022-10-02T09:20:56.400Z,93.57
2022-10-02T09:21:56.445Z,93.46
2022-10-02T09:22:56.374Z,93.06
2022-10-02T09:23:56.368Z,92.76
2022-10-02T09:24:56.343Z,92.86
2022-10-02T09:25:56.323Z,93.16
2022-10-02T09:26:56.311Z,93.37
2022-10-02T09:27:56.315Z,93.16
2022-10-02T09:28:56.391Z,92.76
2022-10-02T09:29:56.273Z,92.96
2022-10-02T09:30:56.264Z,93.06
2022-10-02T09:31:56.282Z,93.06
2022-10-02T09:32:56.236Z,93.06
2022-10-02T09:33:56.333Z,92.76
2022-10-02T09:34:56.200Z,92.55
2022-10-02T09:35:56.189Z,92.55
2022-10-02T09:36:56.233Z,92.55
2022-10-02T09:37:56.179Z,92.55
2022-10-02T09:38:56.165Z,92.65
2022-10-02T09:39:56.137Z,92.86
2022-10-02T09:40:56.131Z,92.65
2022-10-02T09:41:56.099Z,92.86
2022-10-02T09:42:56.095Z,93.16
2022-10-02T09:43:56.088Z,93.06
2022-10-02T09:44:59.179Z,93.02
2022-10-02T09:45:56.073Z,92.82
2022-10-02T09:46:56.043Z,93.02
2022-10-02T09:47:56.019Z,92.61
2022-10-02T09:48:56.034Z,92.71
2022-10-02T09:49:55.986Z,92.91
2022-10-02T09:50:55.995Z,92.82
2022-10-02T09:51:55.955Z,93.12
2022-10-02T09:52:55.961Z,93.22
2022-10-02T09:53:55.992Z,93.32
2022-10-02T09:54:55.922Z,93.12
2022-10-02T09:55:55.909Z,92.96
2022-10-02T09:56:55.899Z,93.26
2022-10-02T09:57:55.900Z,93.42
2022-10-02T09:58:55.888Z,93.42
2022-10-02T09:59:55.862Z,93.42
2022-10-02T10:00:55.879Z,93.22
2022-10-02T10:01:55.882Z,93.12
2022-10-02T10:02:55.816Z,93.27
2022-10-02T10:03:55.810Z,93.18
2022-10-02T10:05:08.253Z,92.52
2022-10-02T10:05:55.784Z,92.22
2022-10-02T10:06:55.745Z,91.97
2022-10-02T10:07:55.785Z,91.20
2022-10-02T10:08:55.811Z,91.31
2022-10-02T10:09:55.781Z,91.61
2022-10-02T10:10:55.706Z,91.61
2022-10-02T10:11:55.721Z,91.11
2022-10-02T10:12:55.670Z,90.80
2022-10-02T10:13:55.675Z,91.20
2022-10-02T10:14:55.650Z,90.91
2022-10-02T10:15:55.625Z,90.50
2022-10-02T10:16:55.625Z,90.60
2022-10-02T10:17:55.603Z,90.70
2022-10-02T10:18:55.631Z,91.11
2022-10-02T10:19:55.579Z,90.60
2022-10-02T10:20:55.574Z,89.69
2022-10-02T10:21:55.556Z,89.39
2022-10-02T10:22:55.540Z,89.69
2022-10-02T10:23:55.566Z,89.69
2022-10-02T10:24:55.537Z,88.98
2022-10-02T10:25:55.494Z,89.18
2022-10-02T10:26:55.478Z,89.39
2022-10-02T10:27:55.523Z,88.98
2022-10-02T10:28:55.478Z,88.57
2022-10-02T10:29:55.445Z,88.88
2022-10-02T10:30:55.423Z,88.94
2022-10-02T10:31:55.440Z,88.43
2022-10-02T10:32:55.418Z,88.13
2022-10-02T10:33:55.397Z,88.13
2022-10-02T10:34:55.369Z,88.02
2022-10-02T10:35:55.366Z,87.79
2022-10-02T10:36:55.349Z,87.79
2022-10-02T10:37:55.324Z,87.99
2022-10-02T10:38:55.339Z,88.39
2022-10-02T10:39:55.299Z,88.79
2022-10-02T10:40:55.319Z,88.49
2022-10-02T10:41:55.268Z,88.39
2022-10-02T10:43:14.275Z,88.84
2022-10-02T10:43:55.268Z,88.94
2022-10-02T10:44:55.241Z,88.84
2022-10-02T10:45:55.273Z,88.74
2022-10-02T10:46:55.218Z,88.19
2022-10-02T10:47:55.190Z,88.19
2022-10-02T10:48:55.204Z,87.10
2022-10-02T10:49:55.174Z,85.34
2022-10-02T10:50:55.173Z,83.98
2022-10-02T10:51:55.179Z,84.09
2022-10-02T10:52:55.146Z,84.39
2022-10-02T10:53:59.573Z,83.98
2022-10-02T10:54:55.105Z,84.73
2022-10-02T10:55:55.090Z,84.89
2022-10-02T10:56:55.079Z,84.15
2022-10-02T10:59:55.686Z,82.13
2022-10-02T11:00:56.689Z,81.55
2022-10-02T11:01:56.668Z,80.46
2022-10-02T11:02:56.615Z,80.10
2022-10-02T11:03:56.754Z,80.04
2022-10-02T11:04:56.583Z,80.47
2022-10-02T11:05:56.573Z,80.72
2022-10-02T11:06:56.570Z,81.22
2022-10-02T11:07:56.554Z,81.32
2022-10-02T11:08:56.559Z,82.37
2022-10-02T11:09:56.530Z,82.64
2022-10-02T11:10:56.546Z,81.52
2022-10-02T11:11:56.499Z,82.27
2022-10-02T11:12:59.208Z,82.53
2022-10-02T11:13:56.509Z,81.08
2022-10-02T11:14:56.490Z,81.35
2022-10-02T11:15:56.470Z,80.04
2022-10-02T11:16:56.445Z,80.94
2022-10-02T11:17:56.425Z,80.98
2022-10-02T11:18:56.433Z,82.07
2022-10-02T11:19:56.430Z,83.42
2022-10-02T11:20:56.377Z,84.27
2022-10-02T11:21:56.371Z,84.97
2022-10-02T11:22:56.354Z,84.87
2022-10-02T11:23:56.381Z,84.87
2022-10-02T11:24:56.340Z,84.83
2022-10-02T11:25:56.336Z,83.52
2022-10-02T11:26:56.331Z,83.92
2022-10-02T11:27:56.338Z,83.82
2022-10-02T11:28:56.290Z,84.23
2022-10-02T11:29:56.272Z,83.38
2022-10-02T11:30:56.259Z,81.62
2022-10-02T11:31:56.317Z,80.33
2022-10-02T11:32:56.241Z,80.00
2022-10-02T11:33:56.213Z,79.96
2022-10-02T11:34:56.195Z,77.91
2022-10-02T11:35:56.195Z,77.00
2022-10-02T11:36:56.214Z,77.27
2022-10-02T11:37:58.649Z,75.72
2022-10-02T11:38:56.173Z,76.46
2022-10-02T11:39:56.145Z,77.11
2022-10-02T11:40:56.116Z,77.84
2022-10-02T11:41:56.123Z,78.89
2022-10-02T11:42:56.098Z,79.73
2022-10-02T11:43:56.116Z,79.23
2022-10-02T11:44:56.070Z,80.44
2022-10-02T11:45:56.088Z,80.94
2022-10-02T11:46:56.052Z,80.33
2022-10-02T11:47:56.032Z,80.38
2022-10-02T11:48:56.026Z,79.47
2022-10-02T11:49:56.008Z,80.58
2022-10-02T11:50:55.990Z,80.78
2022-10-02T11:51:55.987Z,81.59
2022-10-02T11:52:55.985Z,81.12
2022-10-02T11:53:55.981Z,81.73
2022-10-02T11:54:55.935Z,82.13
2022-10-02T11:55:55.937Z,80.51
2022-10-02T11:56:55.924Z,80.45
2022-10-02T11:57:55.900Z,80.55
2022-10-02T12:00:06.906Z,81.56
2022-10-02T12:01:07.883Z,82.27
2022-10-02T12:02:07.991Z,81.67
2022-10-02T12:03:07.967Z,81.36
2022-10-02T12:04:07.845Z,82.07
2022-10-02T12:05:07.845Z,81.32
2022-10-02T12:06:07.819Z,79.87
2022-10-02T12:07:07.802Z,79.16
2022-10-02T12:08:07.843Z,79.41
2022-10-02T12:09:07.768Z,80.21
2022-10-02T12:10:07.769Z,79.81
2022-10-02T12:11:07.746Z,80.72
2022-10-02T12:12:07.733Z,80.72
2022-10-02T12:13:07.753Z,80.31
2022-10-02T12:14:07.709Z,79.71
2022-10-02T12:15:07.694Z,78.96
2022-10-02T12:16:07.712Z,78.56
2022-10-02T12:17:07.669Z,78.06
2022-10-02T12:18:07.659Z,77.39
2022-10-02T12:19:07.670Z,77.99
2022-10-02T12:20:07.628Z,77.59
2022-10-02T12:21:07.606Z,78.23
2022-10-02T12:22:07.606Z,78.94
2022-10-02T12:23:07.611Z,79.14
2022-10-02T12:24:07.612Z,78.30
2022-10-02T12:25:07.567Z,78.80
2022-10-02T12:26:07.551Z,78.70
2022-10-02T12:27:07.538Z,79.61
2022-10-02T12:28:07.624Z,80.01
2022-10-02T12:29:07.512Z,78.33
2022-10-02T12:30:07.586Z,78.84
2022-10-02T12:31:07.485Z,78.94
2022-10-02T12:32:07.520Z,79.34
2022-10-02T12:33:07.467Z,79.64
2022-10-02T12:34:07.443Z,79.85
2022-10-02T12:35:07.425Z,78.33
2022-10-02T12:36:07.418Z,78.43
2022-10-02T12:37:07.401Z,77.66
2022-10-02T12:38:07.399Z,77.97
2022-10-02T12:39:07.378Z,78.37
2022-10-02T12:40:07.378Z,78.67
2022-10-02T12:41:07.350Z,77.97
2022-10-02T12:42:07.342Z,78.06
2022-10-02T12:43:07.388Z,79.17
2022-10-02T12:44:07.329Z,78.47
2022-10-02T12:45:11.530Z,79.28
2022-10-02T12:46:07.348Z,80.59
2022-10-02T12:47:07.314Z,78.77
2022-10-02T12:48:07.301Z,78.37
2022-10-02T12:49:07.254Z,78.91
2022-10-02T12:50:07.255Z,78.71
2022-10-02T12:51:07.238Z,79.17
2022-10-02T12:52:07.242Z,79.48
2022-10-02T12:53:07.231Z,79.24
2022-10-02T12:54:07.204Z,78.39
2022-10-02T12:55:07.163Z,78.16
2022-10-02T12:56:07.148Z,75.80
2022-10-02T12:57:07.138Z,74.15
